Time;durP1;ratioP1;P1;durP2;ratioP2;P2;SDS_P1;SDS_P2;PMS_P1;PMS_P2;Temp;Humidity;BMP_temperature;BMP_pressure;BME280_temperature;BME280_humidity;BME280_pressure;Samples;Min_cycle;Max_cycle;Signal;HPM_P1;HPM_P2
2022/07/18 00:01:33;;;;;;;14.30;6.60;;;;;;;-145.18;100.00;46677.97;5040783;28;20284;-69
2022/07/18 00:03:58;;;;;;;11.13;6.30;;;;;;;-145.18;100.00;46642.81;5052102;28;20524;-70
2022/07/18 00:06:24;;;;;;;12.13;6.57;;;;;;;-145.18;100.00;46679.94;5051746;28;20033;-70
2022/07/18 00:08:50;;;;;;;16.83;6.47;;;;;;;-145.18;100.00;46642.81;5052410;28;20064;-70
2022/07/18 00:11:15;;;;;;;10.17;6.67;;;;;;;-145.18;100.00;46642.81;5051438;28;20524;-69
2022/07/18 00:13:41;;;;;;;10.40;6.43;;;;;;;-145.18;100.00;46642.81;5052030;28;20490;-70
2022/07/18 00:16:06;;;;;;;11.77;6.53;;;;;;;-145.18;100.00;46677.97;5051815;28;20033;-69
2022/07/18 00:18:32;;;;;;;12.23;6.73;;;;;;;-145.18;100.00;46644.78;5051838;28;20036;-70
2022/07/18 00:20:58;;;;;;;12.30;5.70;;;;;;;-145.18;100.00;46681.88;5051453;28;20052;-70
2022/07/18 00:23:23;;;;;;;10.53;6.80;;;;;;;-145.18;100.00;46677.97;5051706;28;20466;-70
2022/07/18 00:25:48;;;;;;;10.33;6.17;;;;;;;-145.18;100.00;46660.41;5052296;28;20158;-69
2022/07/18 00:28:14;;;;;;;11.30;6.60;;;;;;;-145.18;100.00;46640.88;5051270;28;20029;-69
2022/07/18 00:30:40;;;;;;;8.87;6.57;;;;;;;-145.18;100.00;46660.41;5052336;28;20024;-69
2022/07/18 00:33:06;;;;;;;13.70;7.17;;;;;;;-145.18;100.00;46660.41;5051274;28;20241;-69
2022/07/18 00:35:32;;;;;;;11.10;6.57;;;;;;;-145.18;100.00;46660.41;5051848;28;20499;-69
2022/07/18 00:37:57;;;;;;;11.63;6.37;;;;;;;-145.18;100.00;46677.97;5051492;28;20112;-69
2022/07/18 00:40:23;;;;;;;8.20;5.43;;;;;;;-145.18;100.00;46660.41;5051493;28;20029;-69
2022/07/18 00:42:49;;;;;;;9.87;6.30;;;;;;;-145.18;100.00;46679.94;5051538;28;20397;-70
2022/07/18 00:45:14;;;;;;;10.17;5.80;;;;;;;-145.18;100.00;46642.81;5050510;28;20061;-69
2022/07/18 00:47:40;;;;;;;10.93;6.13;;;;;;;-145.18;100.00;46679.94;5050999;28;20063;-69
2022/07/18 00:50:07;;;;;;;11.77;6.30;;;;;;;-145.18;100.00;46679.94;5051274;28;20060;-69
2022/07/18 00:52:33;;;;;;;12.60;6.27;;;;;;;-145.18;100.00;46679.94;5046426;28;20087;-69
2022/07/18 00:54:59;;;;;;;15.63;7.10;;;;;;;-145.18;100.00;46681.88;5042192;28;20055;-69
2022/07/18 00:57:26;;;;;;;12.50;6.13;;;;;;;-145.18;100.00;46660.41;5050237;28;20477;-70
2022/07/18 01:02:36;;;;;;;11.13;5.73;;;;;;;-145.18;100.00;46677.97;5050915;28;20409;-70
2022/07/18 01:05:01;;;;;;;11.70;6.00;;;;;;;-145.18;100.00;46640.88;5051605;28;20033;-70
2022/07/18 01:07:27;;;;;;;9.90;5.90;;;;;;;-145.18;100.00;46642.81;5049654;28;20029;-70
2022/07/18 01:09:52;;;;;;;11.00;5.70;;;;;;;-145.18;100.00;46642.81;5030162;28;20049;-69
2022/07/18 01:12:19;;;;;;;10.67;5.70;;;;;;;-145.18;100.00;46646.72;5043914;28;20087;-70
2022/07/18 01:14:46;;;;;;;12.70;6.10;;;;;;;-145.18;100.00;46644.78;5051162;28;20037;-71
2022/07/18 01:17:17;;;;;;;8.90;5.93;;;;;;;-145.18;100.00;46679.94;5050910;28;20029;-69
2022/07/18 01:19:43;;;;;;;13.27;6.87;;;;;;;-145.18;100.00;46676.03;5051300;28;20051;-70
2022/07/18 01:22:09;;;;;;;12.00;6.60;;;;;;;-145.18;100.00;46660.41;5050508;28;20347;-69
2022/07/18 01:24:37;;;;;;;10.97;6.13;;;;;;;-145.18;100.00;46660.41;5050799;28;20083;-70
2022/07/18 01:27:03;;;;;;;12.33;6.27;;;;;;;-145.18;100.00;46644.78;5050666;28;20179;-70
2022/07/18 01:29:28;;;;;;;11.23;6.00;;;;;;;-145.18;100.00;46642.81;5050817;28;20029;-70
2022/07/18 01:31:53;;;;;;;10.67;6.70;;;;;;;-145.18;100.00;46679.94;5050506;28;20500;-69
2022/07/18 01:34:22;;;;;;;10.57;6.27;;;;;;;-145.18;100.00;46679.94;5050707;28;20025;-69
2022/07/18 01:36:48;;;;;;;10.73;6.90;;;;;;;-145.18;100.00;46679.94;5050046;28;20040;-69
2022/07/18 01:39:13;;;;;;;9.87;6.23;;;;;;;-145.18;100.00;46660.41;5050643;28;20025;-69
2022/07/18 01:41:40;;;;;;;8.27;5.63;;;;;;;-145.18;100.00;46640.88;5050421;28;20508;-69
2022/07/18 01:44:06;;;;;;;12.47;6.27;;;;;;;-145.18;100.00;46660.41;5050342;28;20112;-70
2022/07/18 01:46:31;;;;;;;9.10;6.27;;;;;;;-145.18;100.00;46660.41;5050308;28;20115;-69
2022/07/18 01:48:56;;;;;;;13.83;6.60;;;;;;;-145.18;100.00;46679.94;5033376;28;20021;-69
2022/07/18 01:51:22;;;;;;;10.00;5.83;;;;;;;-145.18;100.00;46642.81;5039402;28;20580;-70
2022/07/18 01:53:55;;;;;;;14.70;6.00;;;;;;;-145.18;100.00;46648.69;5050255;28;20025;-69
2022/07/18 01:56:21;;;;;;;10.00;6.57;;;;;;;-145.18;100.00;46677.97;5049836;28;20028;-69
2022/07/18 01:58:46;;;;;;;14.60;6.23;;;;;;;-145.18;100.00;46677.97;5050180;28;20029;-69
2022/07/18 02:03:47;;;;;;;11.88;6.30;;;;;;;-145.18;100.00;46677.97;4935450;22;20049;-69
2022/07/18 02:06:12;;;;;;;11.63;6.23;;;;;;;-145.18;100.00;46677.97;5032405;28;20041;-71
2022/07/18 02:08:38;;;;;;;10.27;6.40;;;;;;;-145.18;100.00;46677.97;5048388;28;20504;-69
2022/07/18 02:11:03;;;;;;;11.03;6.23;;;;;;;-145.18;100.00;46660.41;5049808;28;20036;-71
2022/07/18 02:13:28;;;;;;;15.20;6.50;;;;;;;-145.18;100.00;46677.97;5042476;28;20048;-71
2022/07/18 02:15:55;;;;;;;11.77;5.30;;;;;;;-145.18;100.00;46677.97;5049563;28;20396;-71
2022/07/18 02:18:20;;;;;;;12.03;5.13;;;;;;;-145.18;100.00;46660.41;5045945;28;20477;-71
2022/07/18 02:20:46;;;;;;;8.97;5.80;;;;;;;-145.18;100.00;46677.97;5050054;28;20036;-71
2022/07/18 02:23:11;;;;;;;15.23;6.23;;;;;;;-145.18;100.00;46677.97;5049648;28;20033;-71
2022/07/18 02:25:37;;;;;;;10.67;6.47;;;;;;;-145.18;100.00;46677.97;5049857;28;20045;-71
2022/07/18 02:28:03;;;;;;;11.67;5.80;;;;;;;-145.18;100.00;46660.41;5049697;28;20032;-71
2022/07/18 02:30:28;;;;;;;10.13;6.43;;;;;;;-145.18;100.00;46660.41;5049532;28;20032;-69
2022/07/18 02:32:55;;;;;;;13.77;6.00;;;;;;;-145.18;100.00;46660.41;5031867;28;20715;-69
2022/07/18 02:35:20;;;;;;;16.73;5.83;;;;;;;-145.18;100.00;46660.41;5049674;28;20033;-69
2022/07/18 02:37:45;;;;;;;10.27;5.87;;;;;;;-145.18;100.00;46660.41;5049340;28;20029;-71
2022/07/18 02:40:11;;;;;;;12.30;6.17;;;;;;;-145.18;100.00;46660.41;5050169;28;20470;-69
2022/07/18 02:42:37;;;;;;;19.43;6.30;;;;;;;-145.18;100.00;46660.41;5048994;28;20029;-70
2022/07/18 02:45:04;;;;;;;12.03;6.03;;;;;;;-145.18;100.00;46660.41;5049725;28;20025;-69
2022/07/18 02:47:30;;;;;;;9.17;5.33;;;;;;;-145.18;100.00;46660.41;5049262;28;20063;-71
2022/07/18 02:49:55;;;;;;;8.87;4.73;;;;;;;-145.18;100.00;46677.97;5049722;28;20434;-70
2022/07/18 02:52:21;;;;;;;7.40;4.97;;;;;;;-145.18;100.00;46660.41;5049489;28;20032;-71
2022/07/18 02:54:46;;;;;;;11.23;6.03;;;;;;;-145.18;100.00;46660.41;5049640;28;20021;-69
2022/07/18 02:57:12;;;;;;;11.37;6.17;;;;;;;-145.18;100.00;46660.41;5049132;28;20031;-71
2022/07/18 02:59:37;;;;;;;11.03;5.80;;;;;;;-145.18;100.00;46660.41;5049635;28;20481;-69
2022/07/18 03:02:03;;;;;;;9.70;5.77;;;;;;;-145.18;100.00;46660.41;5049081;28;20040;-69
2022/07/18 03:04:29;;;;;;;9.07;5.70;;;;;;;-145.18;100.00;46660.41;5049505;28;20025;-68
2022/07/18 03:06:54;;;;;;;11.23;6.17;;;;;;;-145.18;100.00;46640.88;5049386;28;20052;-71
2022/07/18 03:09:20;;;;;;;10.87;6.43;;;;;;;-145.18;100.00;46640.88;5052872;28;20079;-71
2022/07/18 03:11:45;;;;;;;11.13;6.60;;;;;;;-145.18;100.00;46677.97;5053177;28;20481;-71
2022/07/18 03:14:11;;;;;;;10.83;5.93;;;;;;;-145.18;100.00;46640.88;5053459;28;20124;-72
2022/07/18 03:16:37;;;;;;;8.60;6.33;;;;;;;-145.18;100.00;46640.88;5035401;28;20033;-71
2022/07/18 03:19:02;;;;;;;13.33;6.63;;;;;;;-145.18;100.00;46642.81;5053066;28;20032;-69
2022/07/18 03:21:28;;;;;;;9.50;6.47;;;;;;;-145.18;100.00;46638.91;5053352;28;20031;-70
2022/07/18 03:23:54;;;;;;;12.13;7.37;;;;;;;-145.18;100.00;46642.81;5052619;28;20087;-69
2022/07/18 03:26:20;;;;;;;12.63;6.37;;;;;;;-145.18;100.00;46640.88;5052732;28;20075;-69
2022/07/18 03:28:45;;;;;;;11.17;6.87;;;;;;;-145.18;100.00;46677.97;5052288;28;20394;-69
2022/07/18 03:31:11;;;;;;;11.40;7.60;;;;;;;-145.18;100.00;46644.78;5035026;28;20071;-69
2022/07/18 03:33:38;;;;;;;9.80;6.67;;;;;;;-145.18;100.00;46642.81;5057960;28;20036;-71
2022/07/18 03:36:04;;;;;;;12.63;6.83;;;;;;;-145.18;100.00;46644.78;5036407;28;20141;-69
2022/07/18 03:38:29;;;;;;;11.40;6.50;;;;;;;-145.18;100.00;46648.69;5047129;28;20099;-71
2022/07/18 03:40:55;;;;;;;13.57;7.10;;;;;;;-145.18;100.00;46646.72;5049277;28;20524;-68
2022/07/18 03:43:20;;;;;;;12.67;7.07;;;;;;;-145.18;100.00;46648.69;5061447;28;20041;-70
2022/07/18 03:45:47;;;;;;;12.17;6.70;;;;;;;-145.18;100.00;46640.88;5054304;28;20032;-70
2022/07/18 03:48:12;;;;;;;14.20;6.77;;;;;;;-145.18;100.00;46677.97;5052212;28;20132;-71
2022/07/18 03:50:37;;;;;;;14.07;7.40;;;;;;;-145.18;100.00;46644.78;5052886;28;20037;-70
2022/07/18 03:53:03;;;;;;;10.70;6.17;;;;;;;-145.18;100.00;46642.81;5050873;28;20212;-70
2022/07/18 03:55:28;;;;;;;13.60;7.13;;;;;;;-145.18;100.00;46677.97;5057985;28;20029;-70
2022/07/18 03:57:54;;;;;;;16.10;6.80;;;;;;;-145.18;100.00;46644.78;5046167;28;20132;-70
2022/07/18 04:00:19;;;;;;;14.20;6.83;;;;;;;-145.18;100.00;46642.81;5052352;28;20440;-70
2022/07/18 04:02:47;;;;;;;11.93;6.13;;;;;;;-145.18;100.00;46640.88;5050857;28;20051;-70
2022/07/18 04:05:13;;;;;;;9.17;6.60;;;;;;;-145.18;100.00;46640.88;5059826;28;20471;-70
2022/07/18 04:07:39;;;;;;;15.53;7.33;;;;;;;-145.18;100.00;46642.81;5051437;28;20048;-69
2022/07/18 04:10:06;;;;;;;12.33;7.40;;;;;;;-145.18;100.00;46644.78;5051938;28;20037;-70
2022/07/18 04:12:32;;;;;;;14.10;7.70;;;;;;;-145.18;100.00;46640.88;5052091;28;20519;-71
2022/07/18 04:14:58;;;;;;;10.77;7.23;;;;;;;-145.18;100.00;46640.88;5052072;28;20029;-70
2022/07/18 04:17:23;;;;;;;12.20;7.90;;;;;;;-145.18;100.00;46638.91;5055009;28;20029;-70
2022/07/18 04:19:49;;;;;;;14.53;8.03;;;;;;;-145.18;100.00;46660.41;5056824;28;20060;-70
2022/07/18 04:22:14;;;;;;;15.93;8.70;;;;;;;-145.18;100.00;46638.91;5051511;28;20036;-70
2022/07/18 04:24:40;;;;;;;13.00;8.00;;;;;;;-145.18;100.00;46636.94;5051600;28;20041;-70
2022/07/18 04:27:05;;;;;;;14.13;7.70;;;;;;;-145.18;100.00;46644.78;5060021;28;20040;-71
2022/07/18 04:29:31;;;;;;;14.23;7.80;;;;;;;-145.18;100.00;46640.88;5059980;28;20025;-70
2022/07/18 04:31:58;;;;;;;15.77;7.97;;;;;;;-145.18;100.00;46640.88;5056463;28;20040;-70
2022/07/18 04:34:23;;;;;;;14.27;7.50;;;;;;;-145.18;100.00;46642.81;5060729;28;20037;-70
2022/07/18 04:36:48;;;;;;;11.80;7.80;;;;;;;-145.18;100.00;46636.94;5051818;28;20039;-70
2022/07/18 04:39:14;;;;;;;11.93;7.30;;;;;;;-145.18;100.00;46642.81;5050676;28;20115;-70
2022/07/18 04:41:39;;;;;;;17.73;8.03;;;;;;;-145.18;100.00;46638.91;5051164;28;20127;-70
2022/07/18 04:44:05;;;;;;;14.10;8.20;;;;;;;-145.18;100.00;46642.81;5051065;28;20036;-70
2022/07/18 04:46:30;;;;;;;13.33;7.57;;;;;;;-145.18;100.00;46638.91;5052031;28;20056;-70
2022/07/18 04:48:56;;;;;;;15.73;7.40;;;;;;;-145.18;100.00;46640.88;5050058;28;20040;-70
2022/07/18 04:51:21;;;;;;;11.63;7.57;;;;;;;-145.18;100.00;46646.72;5051683;28;20464;-70
2022/07/18 04:53:46;;;;;;;16.87;7.67;;;;;;;-145.18;100.00;46644.78;5051147;28;20044;-69
2022/07/18 04:56:12;;;;;;;15.13;7.97;;;;;;;-145.18;100.00;46638.91;5051691;28;20032;-70
2022/07/18 04:58:37;;;;;;;12.10;7.50;;;;;;;-145.18;100.00;46642.81;5051244;28;20033;-70
2022/07/18 05:01:03;;;;;;;12.70;7.63;;;;;;;-145.18;100.00;46646.72;5051445;28;20080;-70
2022/07/18 05:03:28;;;;;;;13.50;7.63;;;;;;;-145.18;100.00;46640.88;5051012;28;20433;-70
2022/07/18 05:05:54;;;;;;;16.20;7.83;;;;;;;-145.18;100.00;46644.78;5050973;28;20040;-70
2022/07/18 05:08:19;;;;;;;11.57;7.70;;;;;;;-145.18;100.00;46644.78;5050485;28;20035;-70
2022/07/18 05:10:44;;;;;;;12.13;7.87;;;;;;;-145.18;100.00;46642.81;5051100;28;20029;-70
2022/07/18 05:13:10;;;;;;;16.47;8.20;;;;;;;-145.18;100.00;46642.81;5050969;28;20029;-70
2022/07/18 05:15:36;;;;;;;11.67;7.20;;;;;;;-145.18;100.00;46642.81;5051083;28;20400;-71
2022/07/18 05:18:01;;;;;;;13.00;8.20;;;;;;;-145.18;100.00;46640.88;5050260;28;20119;-71
2022/07/18 05:20:27;;;;;;;17.33;7.80;;;;;;;-145.18;100.00;46636.94;5051119;28;20053;-70
2022/07/18 05:22:53;;;;;;;13.30;7.73;;;;;;;-145.18;100.00;46636.94;5050639;28;20037;-70
2022/07/18 05:25:22;;;;;;;17.77;8.37;;;;;;;-145.18;100.00;46640.88;5051272;28;20037;-70
2022/07/18 05:27:48;;;;;;;12.17;7.80;;;;;;;-145.18;100.00;46636.94;5050289;28;20032;-70
2022/07/18 05:30:14;;;;;;;11.23;7.23;;;;;;;-145.18;100.00;46640.88;5050213;28;20068;-70
2022/07/18 05:32:40;;;;;;;13.40;7.53;;;;;;;-145.18;100.00;46638.91;5032756;28;20041;-70
2022/07/18 05:35:07;;;;;;;15.00;8.07;;;;;;;-145.18;100.00;46636.94;5050568;28;20033;-70
2022/07/18 05:37:35;;;;;;;14.80;7.03;;;;;;;-145.18;100.00;46642.81;5050535;28;20119;-70
2022/07/18 05:40:02;;;;;;;12.00;6.97;;;;;;;-145.18;100.00;46640.88;5050177;28;20032;-71
2022/07/18 05:42:27;;;;;;;14.17;8.07;;;;;;;-145.18;100.00;46640.88;5050117;28;20021;-71
2022/07/18 05:44:52;;;;;;;11.47;6.80;;;;;;;-145.18;100.00;46644.78;5049696;28;20037;-71
2022/07/18 05:47:18;;;;;;;14.17;7.17;;;;;;;-145.18;100.00;46642.81;5050171;28;20040;-71
2022/07/18 05:49:43;;;;;;;15.60;7.53;;;;;;;-145.18;100.00;46648.69;5050386;28;20108;-71
2022/07/18 05:52:08;;;;;;;18.97;8.40;;;;;;;-145.18;100.00;46648.69;5003500;28;20402;-71
2022/07/18 05:54:34;;;;;;;11.70;7.23;;;;;;;-145.18;100.00;46644.78;5028457;28;20080;-71
2022/07/18 05:56:59;;;;;;;13.70;7.43;;;;;;;-145.18;100.00;46644.78;5041955;28;20040;-71
2022/07/18 05:59:25;;;;;;;13.43;7.90;;;;;;;-145.18;100.00;46646.72;5049561;28;20505;-71
2022/07/18 06:01:50;;;;;;;20.63;7.27;;;;;;;-145.18;100.00;46646.72;5049419;28;20559;-71
2022/07/18 06:04:15;;;;;;;13.50;7.73;;;;;;;-145.18;100.00;46646.72;5049336;28;20132;-71
2022/07/18 06:06:41;;;;;;;12.33;7.33;;;;;;;-145.18;100.00;46652.59;5049919;28;20091;-70
2022/07/18 06:09:08;;;;;;;16.30;6.70;;;;;;;-145.18;100.00;46652.59;5049403;28;20036;-70
2022/07/18 06:11:34;;;;;;;8.70;5.80;;;;;;;-145.18;100.00;46654.53;5049908;28;20103;-70
2022/07/18 06:14:02;;;;;;;11.47;7.33;;;;;;;-145.18;100.00;46646.72;5048978;28;20029;-71
2022/07/18 06:16:28;;;;;;;16.80;6.60;;;;;;;-145.18;100.00;46633.06;5050009;28;20033;-71
2022/07/18 06:18:53;;;;;;;14.93;6.83;;;;;;;-145.18;100.00;46576.41;5049734;28;20095;-71
2022/07/18 06:21:18;;;;;;;15.93;6.83;;;;;;;-145.18;100.00;46564.69;5050000;28;20639;-71
2022/07/18 06:23:44;;;;;;;12.93;6.67;;;;;;;-145.18;100.00;46547.09;5048908;28;20072;-70
2022/07/18 06:26:09;;;;;;;13.40;6.47;;;;;;;-145.18;100.00;46519.75;5027764;28;20039;-71
2022/07/18 06:28:34;;;;;;;12.43;7.00;;;;;;;-145.18;100.00;46531.47;5044028;28;20033;-71
2022/07/18 06:31:01;;;;;;;16.33;6.20;;;;;;;-145.18;100.00;46519.75;5052460;28;20477;-70
2022/07/18 06:33:26;;;;;;;11.17;6.20;;;;;;;-145.18;100.00;46513.91;5045209;28;20434;-71
2022/07/18 06:35:52;;;;;;;15.30;6.80;;;;;;;-145.18;100.00;46513.91;5048958;28;20071;-71
2022/07/18 06:38:17;;;;;;;17.60;6.40;;;;;;;-145.18;100.00;46519.75;5049121;28;20039;-72
2022/07/18 06:40:43;;;;;;;15.87;6.57;;;;;;;-145.18;100.00;46517.81;5049704;28;20068;-71
2022/07/18 06:43:09;;;;;;;13.70;6.70;;;;;;;-145.18;100.00;46517.81;5050074;28;20032;-71
2022/07/18 06:45:34;;;;;;;13.07;6.40;;;;;;;-145.18;100.00;46517.81;5053027;28;20065;-71
2022/07/18 06:48:00;;;;;;;15.00;6.43;;;;;;;-145.18;100.00;46511.94;5051994;28;20043;-71
2022/07/18 06:50:25;;;;;;;12.67;7.27;;;;;;;-145.18;100.00;46527.56;5053508;28;20119;-71
2022/07/18 06:52:51;;;;;;;9.97;5.87;;;;;;;-145.18;100.00;46515.84;5052830;28;20461;-71
2022/07/18 06:55:16;;;;;;;12.53;6.60;;;;;;;-145.18;100.00;46523.66;5053319;28;20079;-70
2022/07/18 06:57:42;;;;;;;12.50;6.77;;;;;;;-145.18;100.00;46531.47;5053049;28;20056;-71
2022/07/18 07:00:10;;;;;;;14.77;7.30;;;;;;;-145.18;100.00;46515.84;5053248;28;20028;-71
2022/07/18 07:02:42;;;;;;;16.30;6.33;;;;;;;-145.18;100.00;46519.75;5057320;28;20052;-71
2022/07/18 07:05:08;;;;;;;12.43;7.27;;;;;;;-145.18;100.00;46519.75;5052368;28;20267;-71
2022/07/18 07:07:33;;;;;;;14.47;7.70;;;;;;;-145.18;100.00;46533.44;5053090;28;20060;-71
2022/07/18 07:09:58;;;;;;;12.90;7.07;;;;;;;-145.18;100.00;46537.34;5052774;28;20029;-71
2022/07/18 07:12:24;;;;;;;15.70;7.13;;;;;;;-145.18;100.00;46537.34;5053342;28;20493;-71
2022/07/18 07:14:49;;;;;;;18.20;6.93;;;;;;;-145.18;100.00;46527.56;5052155;28;20033;-72
2022/07/18 07:17:14;;;;;;;11.83;7.00;;;;;;;-145.18;100.00;46515.84;5053130;28;20041;-71
2022/07/18 07:19:40;;;;;;;19.23;8.10;;;;;;;-145.18;100.00;46519.75;5052190;28;20033;-71
2022/07/18 07:22:05;;;;;;;12.93;7.37;;;;;;;-145.18;100.00;46515.84;5052955;28;20367;-71
2022/07/18 07:24:30;;;;;;;13.97;8.23;;;;;;;-145.18;100.00;46523.66;5052570;28;20175;-71
2022/07/18 07:26:56;;;;;;;13.43;7.57;;;;;;;-145.18;100.00;46547.09;5052616;28;20045;-71
2022/07/18 07:29:21;;;;;;;12.07;6.50;;;;;;;-145.18;100.00;46537.34;5052375;28;20508;-71
2022/07/18 07:31:47;;;;;;;14.47;7.40;;;;;;;-145.18;100.00;46539.28;5053068;28;20037;-71
2022/07/18 07:34:12;;;;;;;11.23;7.63;;;;;;;-145.18;100.00;46527.56;5051835;28;20028;-71
2022/07/18 07:36:37;;;;;;;10.97;6.93;;;;;;;-145.18;100.00;46527.56;5034093;28;20564;-71
2022/07/18 07:39:03;;;;;;;15.13;6.07;;;;;;;-145.18;100.00;46562.72;5051996;28;20029;-71
2022/07/18 07:41:28;;;;;;;13.50;6.77;;;;;;;-145.18;100.00;46535.38;5052690;28;20037;-71
2022/07/18 07:43:54;;;;;;;12.80;6.47;;;;;;;-145.18;100.00;46556.88;5053244;28;20036;-71
2022/07/18 07:46:19;;;;;;;12.93;6.17;;;;;;;-145.18;100.00;46545.16;5052735;28;20485;-72
2022/07/18 07:48:47;;;;;;;14.87;6.77;;;;;;;-145.18;100.00;46560.78;5052134;28;20179;-71
2022/07/18 07:51:13;;;;;;;11.67;6.77;;;;;;;-145.18;100.00;46558.81;5054723;28;20112;-71
2022/07/18 07:53:38;;;;;;;12.60;5.97;;;;;;;-145.18;100.00;46558.81;5033564;28;20043;-71
2022/07/18 07:56:03;;;;;;;15.23;6.30;;;;;;;-145.18;100.00;46554.91;5052128;28;20104;-71
2022/07/18 07:58:29;;;;;;;13.87;6.23;;;;;;;-145.18;100.00;46545.16;5041614;28;20029;-71
2022/07/18 08:00:54;;;;;;;13.90;6.17;;;;;;;-145.18;100.00;46697.50;5051909;28;20120;-71
2022/07/18 08:03:20;;;;;;;12.10;5.57;;;;;;;-145.18;100.00;47142.91;5051621;28;20536;-71
2022/07/18 08:05:48;;;;;;;8.67;4.90;;;;;;;-145.18;100.00;47144.84;5052327;28;20040;-72
2022/07/18 08:08:15;;;;;;;11.77;4.33;;;;;;;-145.18;100.00;47066.72;5052208;28;20080;-72
2022/07/18 08:10:41;;;;;;;12.77;4.40;;;;;;;-145.18;100.00;47053.03;5051788;28;20036;-71
2022/07/18 08:13:06;;;;;;;11.33;5.20;;;;;;;-145.18;100.00;47058.91;5051269;28;20804;-72
2022/07/18 08:15:32;;;;;;;10.67;4.50;;;;;;;-145.18;100.00;47066.72;5052024;28;20021;-72
2022/07/18 08:17:58;;;;;;;11.27;4.53;;;;;;;-145.18;100.00;47033.50;5054972;28;20464;-72
2022/07/18 08:20:23;;;;;;;11.20;4.90;;;;;;;-145.18;100.00;47049.13;5051847;28;20261;-72
2022/07/18 08:23:03;;;;;;;12.13;3.63;;;;;;;-145.18;100.00;47033.50;5051494;28;20035;-72
2022/07/18 08:25:31;;;;;;;13.10;4.33;;;;;;;-145.18;100.00;47031.53;5051872;28;20025;-72
2022/07/18 08:27:57;;;;;;;10.17;4.47;;;;;;;-145.18;100.00;47017.88;5041676;28;20127;-71
2022/07/18 08:30:23;;;;;;;11.20;4.80;;;;;;;-145.18;100.00;47000.28;5051953;28;20429;-72
2022/07/18 08:32:49;;;;;;;14.03;4.47;;;;;;;-145.18;100.00;47000.28;5051444;28;20040;-72
2022/07/18 08:35:15;;;;;;;8.30;4.10;;;;;;;-145.18;100.00;47008.09;5051338;28;20064;-72
2022/07/18 08:37:40;;;;;;;10.60;3.97;;;;;;;-145.18;100.00;47002.25;5051522;28;20454;-72
2022/07/18 08:40:06;;;;;;;10.80;4.37;;;;;;;-145.18;100.00;46988.56;5038038;28;20104;-72
2022/07/18 08:42:33;;;;;;;6.90;3.87;;;;;;;-145.18;100.00;46996.38;5052570;28;20033;-72
2022/07/18 08:44:59;;;;;;;11.23;3.90;;;;;;;-145.18;100.00;46994.44;5051148;28;20381;-72
2022/07/18 08:47:28;;;;;;;9.82;4.00;;;;;;;-145.18;100.00;46990.53;5064382;28;20040;-72
2022/07/18 08:49:54;;;;;;;17.25;4.40;;;;;;;-145.18;100.00;46984.66;5064307;28;20031;-72
2022/07/18 08:52:20;;;;;;;9.23;4.40;;;;;;;-145.18;100.00;46984.66;5055904;28;20032;-72
2022/07/18 08:54:48;;;;;;;7.55;4.20;;;;;;;-145.18;100.00;46974.91;5053679;28;20036;-73
2022/07/18 08:57:14;;;;;;;12.30;3.45;;;;;;;-145.18;100.00;46965.13;5051748;28;20029;-72
2022/07/18 08:59:39;;;;;;;8.70;3.78;;;;;;;-145.18;100.00;46955.34;5051658;28;20501;-72
2022/07/18 09:02:06;;;;;;;8.30;3.30;;;;;;;-145.18;100.00;46961.22;5051010;28;20508;-72
2022/07/18 09:04:42;;;;;;;8.85;3.38;;;;;;;-145.18;100.00;46961.22;5050650;28;20048;-72
2022/07/18 09:07:21;;;;;;;6.88;3.70;;;;;;;-145.18;100.00;46972.94;5052692;28;20450;-70
2022/07/18 09:09:53;;;;;;;12.30;3.33;;;;;;;-145.18;100.00;46959.25;5070253;28;20035;-73
2022/07/18 09:12:20;;;;;;;7.35;3.38;;;;;;;-145.18;100.00;46957.31;5071341;28;20107;-73
2022/07/18 09:14:46;;;;;;;7.80;3.25;;;;;;;-145.18;100.00;46951.44;5070585;28;20109;-72
2022/07/18 09:17:17;;;;;;;8.10;3.47;;;;;;;-145.18;100.00;46949.50;5070503;28;20056;-72
2022/07/18 09:19:58;;;;;;;7.32;3.22;;;;;;;-145.18;100.00;46941.69;5070376;28;20017;-73
2022/07/18 09:22:25;;;;;;;6.65;2.90;;;;;;;-145.18;100.00;46929.97;5070712;28;20020;-72
2022/07/18 09:24:59;;;;;;;5.60;2.50;;;;;;;-145.18;100.00;46939.72;5070033;28;20024;-73
2022/07/18 09:27:32;;;;;;;7.00;2.70;;;;;;;-145.18;100.00;46931.91;5080243;28;20028;-73
2022/07/18 09:30:28;;;;;;;7.00;2.53;;;;;;;-145.18;100.00;46920.19;5065947;28;20024;-72
2022/07/18 09:32:55;;;;;;;5.97;2.30;;;;;;;-145.18;100.00;46922.16;5072649;28;20501;-73
2022/07/18 09:35:26;;;;;;;7.00;2.97;;;;;;;-145.18;100.00;46922.16;5069897;28;20465;-71
2022/07/18 09:37:58;;;;;;;10.57;2.30;;;;;;;-145.18;100.00;46918.25;5070450;28;20124;-73
2022/07/18 09:40:26;;;;;;;7.80;2.30;;;;;;;-145.18;100.00;46926.06;5069943;28;20029;-73
2022/07/18 09:42:58;;;;;;;6.63;2.20;;;;;;;-145.18;100.00;46926.06;5070047;28;20086;-73
2022/07/18 09:45:25;;;;;;;8.65;1.98;;;;;;;-145.18;100.00;46918.25;5069947;28;20082;-73
2022/07/18 09:47:52;;;;;;;7.05;2.00;;;;;;;-145.18;100.00;46918.25;5070126;28;20182;-71
2022/07/18 09:50:26;;;;;;;6.10;1.70;;;;;;;-145.18;100.00;46916.28;5069839;28;20036;-73
2022/07/18 09:53:14;;;;;;;4.93;1.70;;;;;;;-145.18;97.74;46910.44;5069044;28;20032;-73
2022/07/18 09:55:45;;;;;;;5.82;2.17;;;;;;;-145.18;93.96;46896.75;5069096;28;20029;-73
2022/07/18 09:58:11;;;;;;;8.73;2.03;;;;;;;-145.18;94.71;46902.63;5069490;28;20032;-74
2022/07/18 10:00:38;;;;;;;6.60;1.73;;;;;;;-145.18;85.39;46902.63;5069655;28;20561;-72
2022/07/18 10:03:05;;;;;;;8.50;2.25;;;;;;;-145.18;89.64;46890.91;5072222;28;20056;-73
2022/07/18 10:05:33;;;;;;;9.07;2.28;;;;;;;-145.18;88.21;46902.63;5070501;28;20028;-73
2022/07/18 10:08:01;;;;;;;5.15;1.92;;;;;;;-145.18;95.88;46900.66;5066908;28;20096;-74
2022/07/18 10:10:29;;;;;;;6.07;2.00;;;;;;;-145.18;94.73;46892.84;5076689;28;20465;-73
2022/07/18 10:12:56;;;;;;;4.55;1.98;;;;;;;-145.18;89.67;46890.91;5075960;28;20479;-73
2022/07/18 10:15:24;;;;;;;6.35;1.83;;;;;;;-145.18;93.00;46887.00;5073090;28;20032;-71
2022/07/18 10:17:50;;;;;;;7.72;1.80;;;;;;;-145.18;90.84;46896.75;5069780;28;20029;-71
2022/07/18 10:20:16;;;;;;;4.97;2.17;;;;;;;-145.18;85.02;46885.03;5068657;28;20453;-71
2022/07/18 10:22:43;;;;;;;7.05;1.92;;;;;;;-145.18;79.00;46885.03;5069346;28;20039;-71
2022/07/18 10:25:10;;;;;;;5.55;1.90;;;;;;;-145.18;82.65;46879.19;5069207;28;20423;-72
2022/07/18 10:28:00;;;;;;;5.80;1.45;;;;;;;-145.18;81.21;46881.13;5070155;28;20017;-71
2022/07/18 10:30:30;;;;;;;5.18;2.00;;;;;;;-145.18;85.14;46875.28;5076001;28;20052;-71
2022/07/18 10:32:55;;;;;;;5.35;1.73;;;;;;;-145.18;81.50;46877.22;5069497;28;20531;-71
2022/07/18 10:36:01;;;;;;;4.38;1.85;;;;;;;-145.18;80.59;46865.50;5069484;28;20044;-71
2022/07/18 10:38:27;;;;;;;4.47;1.90;;;;;;;-145.18;82.78;46863.53;5060994;28;20032;-71
2022/07/18 10:41:12;;;;;;;4.30;1.70;;;;;;;-145.18;75.34;46883.09;5069344;28;20469;-71
2022/07/18 10:43:40;;;;;;;7.90;2.15;;;;;;;-145.18;96.52;46865.50;5069009;28;20081;-71
2022/07/18 10:46:07;;;;;;;6.60;1.92;;;;;;;-145.18;83.07;46863.53;5073897;28;20023;-71
2022/07/18 10:48:32;;;;;;;3.92;2.22;;;;;;;-145.18;79.60;46855.72;5077907;28;20385;-72
2022/07/18 10:51:05;;;;;;;5.57;1.92;;;;;;;-145.18;82.92;46863.53;5069113;28;20020;-72
2022/07/18 10:54:01;;;;;;;11.55;2.60;;;;;;;-145.18;77.74;46847.91;5069322;28;20036;-71
2022/07/18 10:56:35;;;;;;;6.22;1.77;;;;;;;-145.18;75.11;46840.09;5057374;28;20028;-70
2022/07/18 10:59:22;;;;;;;7.93;2.10;;;;;;;-145.18;70.72;46859.63;5080397;28;20120;-71
2022/07/18 11:01:56;;;;;;;6.22;2.50;;;;;;;-145.18;69.32;46851.81;5071490;28;20026;-72
2022/07/18 11:04:27;;;;;;;7.83;2.20;;;;;;;-145.18;69.54;46847.91;5072481;28;20040;-71
2022/07/18 11:07:03;;;;;;;7.13;2.47;;;;;;;-145.18;72.14;46853.78;5069295;28;20815;-72
2022/07/18 11:09:37;;;;;;;4.20;1.83;;;;;;;-145.18;68.36;46845.97;5068759;28;20354;-71